Portada
METAR-TAF:

METAR-TAF

Aeroports :

Bàssora, Iraq

latitud: 30-32-56N, longitud: 47-39-45E, altitud: 1 m

Observació

L'informe es va fer fa 1 hora i 6 minuts, a les 16:00 UTC
Vent 6 kt del Oest/Nord-Oest
Temperatura 22°C
Humitat 73%
Pressió 1017 hPa
Visibilitat: 8000 m

METAR: ORMM 011600Z 30006KT 8000 NSC 22/17 Q1017 NOSIG

Hora: 20:06 (17:06 UTC)

Pronòstic

L'informe es va fer fa 6 hores i 46 minuts, a les 10:20 UTC
Pronòstic vàlid del 01 a les 12 UTC al 02 a les 12 UTC
Vent 10 kt del Nord-Oest
Visibilitat: 4000 m
Núvols disperses a una alçada de 3000 ft
Núvols disperses a una alçada de 10000 ft
calitja
Evolucionant progressivament
l' 01 a les 16 UTC al 01 a les 18 UTC
Visibilitat: 8000 m

TAF: ORMM 011020Z 0112/0212 32010KT 4000 HZ SCT030 SCT100 BECMG 0116/0118 8000 NSC

Observacions i pronòstics meteorològics de més de 4000 aeroports (METAR i TAF).

Les estacions disponibles són els punts grocs i vermells al mapa.

Posi el ratolí al punt desitjat per veure el nom de l'estació.

Feu clic per veure les observacions i els pronòstics meteorològics.

Per canviar el mapa: feu clic els botons verds amb una creu de color negre per apropar; al botó verd amb un guió per allunyar la imatge; o en les fletxes verdes per a mapes adjacents.


METAR-TAF: